Main page
METAR-TAF:

METAR-TAF

Airports :

Cervia Air Base

Cervia, Italy

latitude: 44-13N, longitude: 012-18E, elevation: 6 m

Current weather observation

The report was made 52 minutes ago, at 15:55 UTC
Wind 11 kt from the West
Temperature 5°C
Humidity 81%
Pressure 1008 hPa
Visibility: 3000 m
Few clouds at a height of 400 ft
Scattered clouds at a height of 800 ft
Broken clouds at a height of 1500 ft
light rain, mist

METAR: LIPC 201555Z 27011KT 3000 -RA BR FEW004 SCT008 BKN015 05/02 Q1008 RMK OVC VIS MIN 3000 WIND THR11 27010KT WIND THR29 28010KT YLO

Time: 17:47 (16:47 UTC)

Forecast

The report was made 2 hours and 47 minutes ago, at 14:00 UTC
Forecast valid from 20 at 15 UTC to 20 at 24 UTC
Wind 10 kt from the West/Northwest
Visibility: 6000 m
Scattered clouds at a height of 800 ft
Broken clouds at a height of 1200 ft
rain

TAF: LIPC 201400Z 2015/2024 29010KT 6000 RA SCT008 BKN012

Weather observations and forecasts of more than 4000 airports (METAR and TAF reports).

The available stations are represented by yellow and red dots on the map.

Hover mouse over dot to see the name of the station.

Then click to see weather observations and forecasts.

To change the map : click on the green buttons with a black cross to zoom in, on the green button with a dash to zoom out, or on the green arrows for adjacent maps.


METAR-TAF: